BGA135A EDHI-EDDW
Flight info
| Callsign | BGA135A |
|---|---|
| Flight time | 0h 21m |
| Altitude | 10000 |
| Route | WSN L23 GIBMA |
| Aircraft | A337/H-SDE3GHIJ2J3J5M1RVWXY/LB2D1 |
Departure
| Time | 2026-04-27 19:48 |
|---|---|
| Airport | Hamburg-Finkenwerder Airport (EDHI) |
Arrival
| Time | 2026-04-27 20:10 |
|---|---|
| Airport | Bremen Airport (EDDW) |
| Time | Latitude | Longitude | Altitude | Speed | Heading |
|---|---|---|---|---|---|
| 2026-04-27 19:20 | 53.53598 | 9.82876 | 31 ft | 0 kts | 46° |
| 2026-04-27 19:33 | 53.53593 | 9.82863 | 31 ft | 4 kts | 121° |
| 2026-04-27 19:33 | 53.53575 | 9.82868 | 28 ft | 4 kts | 178° |
| 2026-04-27 19:34 | 53.53599 | 9.82860 | 26 ft | 4 kts | 133° |
| 2026-04-27 19:34 | 53.53604 | 9.82842 | 31 ft | 4 kts | 51° |
| 2026-04-27 19:34 | 53.53597 | 9.82832 | 31 ft | 4 kts | 60° |
| 2026-04-27 19:34 | 53.53587 | 9.82797 | 30 ft | 1 kts | 74° |
| 2026-04-27 19:35 | 53.53584 | 9.82761 | 31 ft | 4 kts | 117° |
| 2026-04-27 19:35 | 53.53602 | 9.82735 | 31 ft | 4 kts | 150° |
| 2026-04-27 19:35 | 53.53612 | 9.82725 | 31 ft | 4 kts | 139° |
| 2026-04-27 19:38 | 53.53605 | 9.82735 | 31 ft | 7 kts | 140° |
| 2026-04-27 19:38 | 53.53503 | 9.82869 | 29 ft | 29 kts | 142° |
| 2026-04-27 19:38 | 53.53362 | 9.83056 | 30 ft | 11 kts | 152° |
| 2026-04-27 19:39 | 53.53284 | 9.83020 | 29 ft | 17 kts | 221° |
| 2026-04-27 19:39 | 53.53198 | 9.82844 | 26 ft | 22 kts | 231° |
| 2026-04-27 19:39 | 53.53096 | 9.82627 | 29 ft | 25 kts | 231° |
| 2026-04-27 19:39 | 53.52981 | 9.82385 | 27 ft | 28 kts | 231° |
| 2026-04-27 19:40 | 53.52932 | 9.82150 | 28 ft | 10 kts | 258° |
| 2026-04-27 19:40 | 53.52906 | 9.82124 | 27 ft | 7 kts | 183° |
| 2026-04-27 19:40 | 53.52890 | 9.82172 | 26 ft | 5 kts | 86° |
| 2026-04-27 19:40 | 53.52902 | 9.82217 | 27 ft | 0 kts | 51° |
| 2026-04-27 19:47 | 53.52903 | 9.82217 | 27 ft | 1 kts | 51° |
| 2026-04-27 19:47 | 53.52909 | 9.82230 | 29 ft | 0 kts | 51° |
| 2026-04-27 19:47 | 53.53014 | 9.82453 | 28 ft | 64 kts | 52° |
| 2026-04-27 19:48 | 53.53459 | 9.83395 | 29 ft | 139 kts | 51° |
| 2026-04-27 19:48 | 53.54108 | 9.84773 | 652 ft | 160 kts | 53° |
| 2026-04-27 19:48 | 53.54806 | 9.86261 | 1738 ft | 162 kts | 52° |
| 2026-04-27 19:48 | 53.55548 | 9.87838 | 2427 ft | 185 kts | 52° |
| 2026-04-27 19:49 | 53.56408 | 9.89624 | 3173 ft | 205 kts | 48° |
| 2026-04-27 19:49 | 53.57570 | 9.91051 | 4224 ft | 211 kts | 22° |
| 2026-04-27 19:49 | 53.59012 | 9.91324 | 5386 ft | 212 kts | 350° |
| 2026-04-27 19:49 | 53.60327 | 9.90244 | 6540 ft | 215 kts | 318° |
| 2026-04-27 19:50 | 53.61187 | 9.88171 | 7613 ft | 219 kts | 298° |
| 2026-04-27 19:50 | 53.61741 | 9.85749 | 8676 ft | 226 kts | 283° |
| 2026-04-27 19:50 | 53.61733 | 9.83065 | 9607 ft | 238 kts | 259° |
| 2026-04-27 19:50 | 53.61273 | 9.80254 | 10138 ft | 264 kts | 252° |
| 2026-04-27 19:51 | 53.60657 | 9.77192 | 10276 ft | 285 kts | 251° |
| 2026-04-27 19:51 | 53.59984 | 9.73863 | 10281 ft | 312 kts | 252° |
| 2026-04-27 19:51 | 53.59284 | 9.70357 | 10283 ft | 318 kts | 251° |
| 2026-04-27 19:51 | 53.58366 | 9.66972 | 10290 ft | 319 kts | 244° |
| 2026-04-27 19:52 | 53.57323 | 9.63683 | 10289 ft | 318 kts | 242° |
| 2026-04-27 19:52 | 53.56581 | 9.61485 | 10291 ft | 319 kts | 241° |
| 2026-04-27 19:52 | 53.55081 | 9.57240 | 10289 ft | 319 kts | 240° |
| 2026-04-27 19:52 | 53.53931 | 9.54068 | 10288 ft | 319 kts | 240° |
| 2026-04-27 19:53 | 53.51613 | 9.47712 | 10286 ft | 319 kts | 239° |
| 2026-04-27 19:53 | 53.50457 | 9.44531 | 10285 ft | 319 kts | 239° |
| 2026-04-27 19:53 | 53.49303 | 9.41350 | 10284 ft | 319 kts | 239° |
| 2026-04-27 19:54 | 53.48152 | 9.38172 | 10283 ft | 319 kts | 240° |
| 2026-04-27 19:54 | 53.47000 | 9.34990 | 10279 ft | 319 kts | 240° |
| 2026-04-27 19:54 | 53.45850 | 9.31813 | 10282 ft | 319 kts | 239° |
| 2026-04-27 19:54 | 53.44699 | 9.28638 | 10281 ft | 318 kts | 240° |
| 2026-04-27 19:55 | 53.43548 | 9.25468 | 10279 ft | 318 kts | 240° |
| 2026-04-27 19:55 | 53.42397 | 9.22301 | 10279 ft | 318 kts | 239° |
| 2026-04-27 19:55 | 53.41247 | 9.19142 | 10279 ft | 318 kts | 240° |
| 2026-04-27 19:55 | 53.40095 | 9.15980 | 10279 ft | 318 kts | 239° |
| 2026-04-27 19:56 | 53.38940 | 9.12817 | 10275 ft | 318 kts | 239° |
| 2026-04-27 19:56 | 53.37787 | 9.09662 | 10275 ft | 317 kts | 239° |
| 2026-04-27 19:56 | 53.36636 | 9.06517 | 10282 ft | 317 kts | 239° |
| 2026-04-27 19:56 | 53.35485 | 9.03376 | 10279 ft | 317 kts | 239° |
| 2026-04-27 19:57 | 53.34332 | 9.00232 | 9929 ft | 316 kts | 239° |
| 2026-04-27 19:57 | 53.33214 | 8.97193 | 9579 ft | 296 kts | 239° |
| 2026-04-27 19:57 | 53.32161 | 8.94338 | 9196 ft | 283 kts | 240° |
| 2026-04-27 19:57 | 53.31136 | 8.91558 | 8839 ft | 280 kts | 240° |
| 2026-04-27 19:58 | 53.30115 | 8.88785 | 8497 ft | 279 kts | 240° |
| 2026-04-27 19:58 | 53.29097 | 8.86023 | 8178 ft | 279 kts | 240° |
| 2026-04-27 19:58 | 53.28079 | 8.83265 | 7842 ft | 279 kts | 240° |
| 2026-04-27 19:58 | 53.27062 | 8.80511 | 7508 ft | 278 kts | 240° |
| 2026-04-27 19:59 | 53.26046 | 8.77765 | 7205 ft | 277 kts | 240° |
| 2026-04-27 19:59 | 53.25035 | 8.75038 | 6913 ft | 277 kts | 240° |
| 2026-04-27 19:59 | 53.24016 | 8.72292 | 6638 ft | 277 kts | 240° |
| 2026-04-27 19:59 | 53.23004 | 8.69566 | 6368 ft | 276 kts | 239° |
| 2026-04-27 20:00 | 53.21995 | 8.66851 | 6076 ft | 275 kts | 239° |
| 2026-04-27 20:00 | 53.20988 | 8.64141 | 5793 ft | 275 kts | 239° |
| 2026-04-27 20:00 | 53.19982 | 8.61443 | 5510 ft | 274 kts | 239° |
| 2026-04-27 20:00 | 53.18974 | 8.58742 | 5235 ft | 273 kts | 239° |
| 2026-04-27 20:01 | 53.17974 | 8.56066 | 5028 ft | 272 kts | 239° |
| 2026-04-27 20:01 | 53.16975 | 8.53396 | 4992 ft | 271 kts | 239° |
| 2026-04-27 20:01 | 53.15979 | 8.50734 | 4728 ft | 271 kts | 239° |
| 2026-04-27 20:01 | 53.14991 | 8.48064 | 4421 ft | 270 kts | 239° |
| 2026-04-27 20:02 | 53.14015 | 8.45394 | 4041 ft | 270 kts | 239° |
| 2026-04-27 20:02 | 53.13048 | 8.42723 | 3657 ft | 267 kts | 236° |
| 2026-04-27 20:02 | 53.11744 | 8.40656 | 3352 ft | 254 kts | 207° |
| 2026-04-27 20:02 | 53.10093 | 8.39804 | 3123 ft | 248 kts | 187° |
| 2026-04-27 20:03 | 53.08403 | 8.39465 | 3011 ft | 237 kts | 184° |
| 2026-04-27 20:03 | 53.06808 | 8.39245 | 3009 ft | 226 kts | 176° |
| 2026-04-27 20:03 | 53.05340 | 8.39984 | 3000 ft | 220 kts | 144° |
| 2026-04-27 20:03 | 53.04268 | 8.41764 | 2999 ft | 219 kts | 127° |
| 2026-04-27 20:04 | 53.03437 | 8.43879 | 2998 ft | 218 kts | 109° |
| 2026-04-27 20:04 | 53.03409 | 8.46239 | 2995 ft | 198 kts | 78° |
| 2026-04-27 20:04 | 53.03739 | 8.48348 | 3005 ft | 188 kts | 78° |
| 2026-04-27 20:04 | 53.03915 | 8.49776 | 2999 ft | 186 kts | 81° |
| 2026-04-27 20:05 | 53.04081 | 8.52543 | 3004 ft | 172 kts | 87° |
| 2026-04-27 20:05 | 53.04129 | 8.54476 | 2849 ft | 164 kts | 88° |
| 2026-04-27 20:05 | 53.04173 | 8.56365 | 2586 ft | 162 kts | 88° |
| 2026-04-27 20:05 | 53.04217 | 8.58187 | 2356 ft | 153 kts | 88° |
| 2026-04-27 20:06 | 53.04258 | 8.59905 | 2145 ft | 146 kts | 87° |
| 2026-04-27 20:06 | 53.04296 | 8.61575 | 1933 ft | 143 kts | 87° |
| 2026-04-27 20:06 | 53.04333 | 8.63211 | 1747 ft | 137 kts | 86° |
| 2026-04-27 20:06 | 53.04368 | 8.64735 | 1557 ft | 130 kts | 86° |
| 2026-04-27 20:07 | 53.04391 | 8.65747 | 1442 ft | 129 kts | 85° |
| 2026-04-27 20:07 | 53.04423 | 8.67187 | 1269 ft | 121 kts | 85° |
| 2026-04-27 20:07 | 53.04455 | 8.68567 | 1101 ft | 117 kts | 84° |
| 2026-04-27 20:07 | 53.04486 | 8.69907 | 941 ft | 116 kts | 84° |
| 2026-04-27 20:08 | 53.04516 | 8.71245 | 775 ft | 117 kts | 83° |
| 2026-04-27 20:08 | 53.04547 | 8.72599 | 636 ft | 118 kts | 84° |
| 2026-04-27 20:08 | 53.04579 | 8.73949 | 473 ft | 116 kts | 84° |
| 2026-04-27 20:08 | 53.04614 | 8.75268 | 302 ft | 115 kts | 85° |
| 2026-04-27 20:09 | 53.04640 | 8.76609 | 158 ft | 117 kts | 85° |
| 2026-04-27 20:09 | 53.04676 | 8.77959 | 27 ft | 112 kts | 85° |
| 2026-04-27 20:09 | 53.04700 | 8.78938 | 27 ft | 70 kts | 89° |
| 2026-04-27 20:09 | 53.04714 | 8.79685 | 25 ft | 60 kts | 88° |
| 2026-04-27 20:10 | 53.04725 | 8.80256 | 28 ft | 36 kts | 90° |
| 2026-04-27 20:10 | 53.04760 | 8.80445 | 29 ft | 14 kts | 28° |
| 2026-04-27 20:10 | 53.04844 | 8.80448 | 26 ft | 8 kts | 337° |
| 2026-04-27 20:10 | 53.04878 | 8.80380 | 27 ft | 7 kts | 287° |
| 2026-04-27 20:11 | 53.04885 | 8.80291 | 29 ft | 9 kts | 271° |
| 2026-04-27 20:11 | 53.04910 | 8.80204 | 29 ft | 9 kts | 329° |
| 2026-04-27 20:11 | 53.04977 | 8.80189 | 29 ft | 8 kts | 345° |
| 2026-04-27 20:11 | 53.05015 | 8.80134 | 30 ft | 7 kts | 309° |
| 2026-04-27 20:12 | 53.05030 | 8.80115 | 29 ft | 0 kts | 323° |